Latest Weather Observations for Neptune Island

IDS60801

Issued at 4:31 am CDT Tuesday 28 March 2017 (issued every 30 minutes, with the page automatically refreshed every 10 minutes)

About weather observations | Map of weather stations | Latest weather observations for SA | Other Formats
Station Details ID: 018115 Name: NEPTUNE ISLAND Lat: -35.34 Lon: 136.12 Height: 32.0 m
Data from the previous 72 hours. | See also: Recent months at Neptune Island
Date/Time
CDT
Temp
°C
App
Temp
°C
Dew
Point
°C
Rel
Hum
%
Delta-T
°C
Wind Press
QNH
hPa
Press
MSL
hPa
Rain since
9am
mm
Dir  Spd
km/h
Gust
km/h
Spd
kts
Gust
kts
28/04:00am 17.5 13.4 12.8 74 2.6 W 26 32 14 17 1014.6 1014.6 0.0
28/03:30am 17.7 13.8 13.4 76 2.4 W 26 30 14 16 1015.0 1015.0 0.0
28/03:00am 17.6 14.3 12.7 73 2.7 W 22 30 12 16 1015.0 1015.0 0.0
28/02:30am 17.6 13.1 12.7 73 2.7 W 28 32 15 17 1015.2 1015.2 0.0
28/02:00am 17.6 13.1 12.7 73 2.7 W 28 32 15 17 1015.6 1015.5 0.0
28/01:30am 17.7 13.3 13.0 74 2.6 W 28 35 15 19 1015.8 1015.7 0.0
28/01:00am 17.6 12.7 12.7 73 2.7 W 30 33 16 18 1015.9 1015.8 0.0
28/12:30am 17.7 13.8 13.4 76 2.4 W 26 37 14 20 1016.0 1015.9 0.0
28/12:00am 17.7 12.6 13.2 75 2.5 W 32 35 17 19 1015.9 1015.8 0.0
 
Date/Time
CDT
Temp
°C
App
Temp
°C
Dew
Point
°C
Rel
Hum
%
Delta-T
°C
Wind Press
QNH
hPa
Press
MSL
hPa
Rain since
9am
mm
Dir  Spd
km/h
Gust
km/h
Spd
kts
Gust
kts
27/11:30pm 17.8 13.2 13.5 76 2.4 W 30 35 16 19 1016.1 1016.0 0.0
27/11:00pm 18.0 13.9 13.9 77 2.3 W 28 32 15 17 1016.1 1016.0 0.0
27/10:30pm 18.0 14.1 13.3 74 2.7 W 26 32 14 17 1016.0 1015.9 0.0
27/10:00pm 18.0 14.1 13.3 74 2.7 W 26 32 14 17 1016.0 1015.9 0.0
27/09:30pm 18.1 13.3 13.0 72 2.9 W 30 35 16 19 1015.9 1015.8 0.0
27/09:00pm 18.1 13.5 13.4 74 2.7 WSW 30 33 16 18 1015.3 1015.3 0.0
27/08:30pm 18.3 14.6 14.0 76 2.5 WSW 26 30 14 16 1015.1 1015.1 0.0
27/08:00pm 18.3 14.6 13.8 75 2.6 W 26 32 14 17 1014.9 1014.9 0.0
27/07:30pm 18.3 13.8 13.8 75 2.6 WSW 30 35 16 19 1014.7 1014.7 0.0
27/07:00pm 18.7 14.0 14.2 75 2.6 WSW 32 37 17 20 1014.5 1014.5 0.0
27/06:30pm 18.9 13.9 13.5 71 3.1 W 32 39 17 21 1014.2 1014.2 0.0
27/06:00pm 19.6 14.8 14.0 70 3.2 W 32 37 17 20 1014.3 1014.3 0.0
27/05:30pm 19.7 14.1 13.2 66 3.7 WSW 35 43 19 23 1014.0 1014.0 0.0
27/05:00pm 19.9 13.6 13.4 66 3.7 WSW 39 44 21 24 1014.1 1014.1 0.0
27/04:30pm 19.8 13.5 13.5 67 3.6 WSW 39 46 21 25 1014.2 1014.2 0.0
27/04:00pm 20.0 12.9 13.5 66 3.7 WSW 43 50 23 27 1014.1 1014.1 0.0
27/03:30pm 20.1 13.2 12.8 63 4.1 W 41 46 22 25 1014.0 1014.0 0.0
27/03:00pm 20.3 13.0 13.5 65 3.9 W 44 52 24 28 1014.2 1014.2 0.0
27/02:30pm 20.8 13.9 14.0 65 3.9 W 43 50 23 27 1014.3 1014.3 0.0
27/02:00pm 20.8 14.7 14.0 65 3.9 W 39 46 21 25 1014.2 1014.2 0.0
27/01:30pm 20.4 13.5 14.1 67 3.7 W 43 52 23 28 1014.2 1014.2 0.0
27/01:00pm 20.3 13.3 13.7 66 3.8 W 43 52 23 28 1014.1 1014.1 0.0
27/12:30pm 20.0 12.7 13.5 66 3.7 WSW 44 54 24 29 1014.2 1014.2 0.0
27/12:00pm 19.8 11.2 13.0 65 3.9 W 50 59 27 32 1014.0 1014.0 0.0
27/11:30am 19.8 11.6 13.0 65 3.9 WSW 48 54 26 29 1013.7 1013.7 0.0
27/11:00am 19.7 11.9 12.9 65 3.8 W 46 56 25 30 1013.7 1013.7 0.0
27/10:30am 19.4 10.9 13.3 68 3.5 W 50 59 27 32 1013.2 1013.2 0.0
27/10:00am 19.2 10.6 12.9 67 3.6 W 50 63 27 34 1012.6 1012.6 0.0
27/09:30am 18.8 11.2 13.6 72 3.0 W 46 61 25 33 1012.1 1012.1 0.0
27/09:00am 19.0 10.0 14.1 73 2.8 W 54 67 29 36 1011.7 1011.7 0.0
27/08:30am 18.6 10.2 13.5 72 2.9 W 50 59 27 32 1011.4 1011.4 0.0
27/08:00am 18.6 10.0 14.1 75 2.6 W 52 61 28 33 1010.8 1010.8 0.0
27/07:30am 18.3 11.0 14.4 78 2.3 W 46 57 25 31 1010.5 1010.5 0.0
27/07:00am 18.4 10.1 13.7 74 2.7 WSW 50 57 27 31 1009.7 1009.6 0.0
27/06:30am 18.8 10.7 14.3 75 2.6 W 50 59 27 32 1009.4 1009.3 0.0
27/06:00am 18.8 11.4 15.3 80 2.1 WSW 48 56 26 30 1008.1 1008.0 0.0
27/05:30am 19.0 11.7 15.5 80 2.1 WSW 48 59 26 32 1007.7 1007.6 0.0
27/05:00am 19.0 11.8 15.9 82 1.8 WSW 48 57 26 31 1006.8 1006.7 0.0
27/04:30am 19.3 11.4 16.0 81 2.0 WSW 52 61 28 33 1006.9 1006.8 0.0
27/04:00am 19.5 11.7 16.3 82 1.9 WSW 52 63 28 34 1006.2 1006.1 0.0
27/03:30am 19.6 13.9 17.7 89 1.2 WSW 44 52 24 28 1005.6 1005.5 0.0
27/03:00am 19.8 13.8 17.9 89 1.2 WSW 46 54 25 29 1005.7 1005.6 0.0
27/02:30am 20.0 13.4 18.3 90 1.1 WSW 50 57 27 31 1005.7 1005.6 0.0
27/02:00am 20.1 13.2 18.4 90 1.1 WSW 52 59 28 32 1005.6 1005.5 0.0
27/01:30am 20.2 13.7 18.5 90 1.1 WSW 50 57 27 31 1005.1 1005.0 0.0
27/01:00am 20.5 12.8 18.4 88 1.3 WSW 56 65 30 35 1004.4 1004.3 0.0
27/12:33am 20.9 13.7 18.5 86 1.5 WSW 54 72 29 39 1003.4 1003.3 0.0
27/12:30am 20.9 14.4 18.5 86 1.5 WSW 50 65 27 35 1003.3 1003.2 0.0
27/12:00am 21.4 15.6 18.2 82 2.0 W 46 54 25 29 1003.7 1003.6 0.0
 
Date/Time
CDT
Temp
°C
App
Temp
°C
Dew
Point
°C
Rel
Hum
%
Delta-T
°C
Wind Press
QNH
hPa
Press
MSL
hPa
Rain since
9am
mm
Dir  Spd
km/h
Gust
km/h
Spd
kts
Gust
kts
26/11:30pm 22.3 16.6 17.7 75 2.9 W 44 50 24 27 1003.6 1003.5 0.0
26/11:25pm 22.6 17.0 17.5 73 3.2 W 43 50 23 27 1003.7 1003.6 0.0
26/11:00pm 22.3 18.3 18.5 79 2.4 NW 37 43 20 23 1003.9 1003.8 0.0
26/10:52pm 22.3 19.2 18.5 79 2.4 NNW 32 41 17 22 1003.9 1003.8 0.0
26/10:30pm 23.0 20.4 18.7 77 2.7 N 30 37 16 20 1002.8 1002.7 0.0
26/10:00pm 21.9 18.5 18.9 83 1.9 NNE 35 39 19 21 1002.9 1002.8 0.0
26/09:30pm 21.9 19.7 18.7 82 2.0 NNE 28 32 15 17 1003.0 1002.9 0.0
26/09:00pm 21.6 18.6 18.6 83 1.9 NNE 32 39 17 21 1002.9 1002.8 0.0
26/08:30pm 21.7 19.7 19.1 85 1.7 NE 28 35 15 19 1002.8 1002.7 0.0
26/08:00pm 20.7 18.9 18.8 89 1.2 NNE 26 30 14 16 1003.1 1003.0 0.0
26/07:30pm 21.0 18.5 18.9 88 1.3 NE 30 32 16 17 1003.1 1003.0 0.0
26/07:00pm 20.8 18.7 18.9 89 1.2 ENE 28 30 15 16 1003.5 1003.4 0.0
26/06:30pm 20.6 18.8 18.7 89 1.2 ENE 26 28 14 15 1003.7 1003.6 0.0
26/06:00pm 21.1 19.7 18.7 86 1.5 ENE 24 28 13 15 1004.0 1003.9 0.0
26/05:30pm 21.9 20.3 19.3 85 1.7 NE 26 30 14 16 1004.4 1004.3 0.0
26/05:00pm 21.5 19.0 18.9 85 1.6 ENE 30 33 16 18 1004.7 1004.6 0.0
26/04:30pm 22.4 20.9 19.4 83 1.9 ENE 26 32 14 17 1004.9 1004.8 0.0
26/04:00pm 22.2 20.7 19.4 84 1.8 ENE 26 30 14 16 1005.2 1005.1 0.0
26/03:30pm 22.0 20.8 19.2 84 1.8 ENE 24 28 13 15 1006.2 1006.1 0.0
26/03:00pm 21.8 19.2 19.5 87 1.5 ENE 32 35 17 19 1006.3 1006.2 0.0
26/02:30pm 21.5 19.1 19.2 87 1.5 ENE 30 35 16 19 1007.0 1006.9 0.0
26/02:00pm 21.6 19.7 19.3 87 1.5 ENE 28 33 15 18 1008.4 1008.3 0.0
26/01:30pm 21.8 19.9 19.4 86 1.5 ENE 28 33 15 18 1008.7 1008.6 0.0
26/01:00pm 20.8 19.2 19.1 90 1.1 ENE 26 30 14 16 1009.3 1009.2 0.0
26/12:30pm 20.4 19.0 18.7 90 1.1 ENE 24 28 13 15 1010.1 1010.1 0.0
26/12:00pm 20.4 19.4 18.9 91 0.9 ENE 22 26 12 14 1010.9 1010.9 0.0
26/11:30am 19.8 18.3 18.5 92 0.8 ENE 24 28 13 15 1011.1 1011.1 0.0
26/11:00am 19.7 17.7 18.4 92 0.8 ENE 26 32 14 17 1011.1 1011.1 0.0
26/10:30am 19.5 17.8 18.2 92 0.8 ENE 24 30 13 16 1011.6 1011.6 0.0
26/10:00am 19.4 17.3 18.1 92 0.8 E 26 32 14 17 1011.6 1011.6 0.0
26/09:30am 19.4 17.4 18.2 93 0.7 E 26 30 14 16 1011.5 1011.5 0.0
26/09:00am 19.4 17.7 18.2 93 0.7 E 24 28 13 15 1011.9 1011.9 0.0
26/08:30am 19.4 17.7 18.2 93 0.7 E 24 30 13 16 1011.4 1011.4 0.0
26/08:00am 19.2 17.8 18.0 93 0.7 ESE 22 28 12 15 1011.6 1011.6 0.0
26/07:30am 19.1 18.1 17.9 93 0.7 ESE 20 24 11 13 1011.5 1011.5 0.0
26/07:00am 19.1 18.3 17.9 93 0.7 ESE 19 24 10 13 1011.3 1011.3 0.0
26/06:30am 19.1 18.2 18.1 94 0.6 E 20 26 11 14 1011.0 1011.0 0.0
26/06:00am 19.0 17.6 18.0 94 0.6 E 22 26 12 14 1010.7 1010.7 0.0
26/05:30am 19.0 17.5 17.8 93 0.7 ENE 22 24 12 13 1010.9 1010.9 0.0
26/05:00am 19.0 17.2 17.8 93 0.7 ENE 24 28 13 15 1010.2 1010.2 0.0
26/04:30am 18.9 17.0 17.7 93 0.7 ENE 24 30 13 16 1010.4 1010.4 0.0
26/04:00am 18.9 17.0 17.7 93 0.7 ENE 24 26 13 14 1010.8 1010.8 0.0
26/03:30am 19.0 17.5 17.7 92 0.8 ENE 22 28 12 15 1011.2 1011.2 0.0
26/03:00am 19.0 16.4 17.7 92 0.8 ENE 28 33 15 18 1011.3 1011.3 0.0
26/02:30am 19.0 16.0 17.7 92 0.8 ENE 30 33 16 18 1011.8 1011.8 0.0
26/02:00am 19.0 16.4 17.7 92 0.8 ENE 28 32 15 17 1012.4 1012.4 0.0
26/01:30am 19.2 17.0 17.9 92 0.8 ENE 26 30 14 16 1013.0 1013.0 0.0
26/01:00am 19.3 17.6 18.0 92 0.8 ENE 24 28 13 15 1013.5 1013.5 0.0
26/12:30am 19.3 17.1 17.8 91 0.9 ENE 26 30 14 16 1013.5 1013.5 0.0
26/12:00am 19.5 17.4 18.0 91 0.9 ENE 26 30 14 16 1013.8 1013.8 0.0
 
Date/Time
CDT
Temp
°C
App
Temp
°C
Dew
Point
°C
Rel
Hum
%
Delta-T
°C
Wind Press
QNH
hPa
Press
MSL
hPa
Rain since
9am
mm
Dir  Spd
km/h
Gust
km/h
Spd
kts
Gust
kts
25/11:30pm 19.5 17.0 18.0 91 0.9 ENE 28 33 15 18 1013.4 1013.4 0.0
25/11:00pm 19.6 17.9 18.1 91 0.9 ENE 24 30 13 16 1013.8 1013.8 0.0
25/10:30pm 19.7 18.3 18.0 90 1.0 E 22 26 12 14 1013.9 1013.9 0.0
25/10:00pm 19.7 18.7 18.0 90 1.0 E 20 22 11 12 1014.0 1014.0 0.0
25/09:30pm 19.5 18.9 17.6 89 1.2 ESE 17 20 9 11 1013.7 1013.7 0.0
25/09:00pm 19.3 18.0 17.3 88 1.2 SSE 20 26 11 14 1013.7 1013.7 0.0
25/08:30pm 19.2 16.4 17.2 88 1.2 SSE 28 32 15 17 1013.4 1013.4 0.0
25/08:00pm 19.2 17.5 17.2 88 1.2 SSE 22 28 12 15 1013.2 1013.2 0.0
25/07:30pm 19.3 17.2 17.1 87 1.3 SSE 24 28 13 15 1012.7 1012.7 0.0
25/07:00pm 19.3 17.5 16.9 86 1.5 SSE 22 28 12 15 1012.5 1012.5 0.0
25/06:30pm 19.7 18.0 17.1 85 1.6 SSE 22 26 12 14 1012.8 1012.8 0.0
25/06:00pm 20.1 19.3 17.1 83 1.8 S 17 20 9 11 1013.0 1013.0 0.0
25/05:30pm 20.5 19.3 17.1 81 2.1 SSE 19 24 10 13 1012.7 1012.7 0.0
25/05:00pm 21.0 19.9 17.2 79 2.3 SSE 19 26 10 14 1012.7 1012.7 0.0
25/04:30pm 21.2 19.5 17.2 78 2.5 S 22 24 12 13 1013.0 1013.0 0.0
25/04:00pm 21.3 20.2 17.7 80 2.2 SSE 20 24 11 13 1012.9 1012.9 0.0
25/03:30pm 21.6 21.7 18.4 82 2.0 SSE 15 20 8 11 1012.7 1012.7 0.0
25/03:00pm 20.8 21.1 17.8 83 1.9 S 13 15 7 8 1013.3 1013.3 0.0
25/02:30pm 20.5 21.1 17.7 84 1.7 S 11 11 6 6 1013.5 1013.5 0.0
25/02:00pm 21.2 21.5 18.0 82 2.0 SSE 13 17 7 9 1013.7 1013.7 0.0
25/01:30pm 21.2 21.6 18.2 83 1.9 SSE 13 15 7 8 1014.2 1014.2 0.0
25/01:00pm 21.5 22.0 18.3 82 2.0 SSE 13 15 7 8 1014.5 1014.5 0.0
25/12:30pm 21.9 22.7 19.1 84 1.8 SSE 13 17 7 9 1014.4 1014.4 0.0
25/12:00pm 21.0 21.5 18.4 85 1.6 S 13 15 7 8 1015.0 1015.0 0.0
25/11:30am 20.4 20.7 18.0 86 1.5 SSE 13 17 7 9 1014.6 1014.6 0.0
25/11:00am 20.7 20.9 18.5 87 1.4 S 15 20 8 11 1014.3 1014.3 0.0
25/10:30am 20.0 20.0 18.0 88 1.2 S 15 17 8 9 1014.2 1014.2 0.0
25/10:00am 19.6 19.4 17.7 89 1.2 SSW 15 17 8 9 1014.1 1014.1 0.0
25/09:30am 19.5 19.3 17.6 89 1.2 SSW 15 17 8 9 1013.7 1013.7 0.0
25/09:00am 19.3 19.1 17.6 90 1.0 S 15 17 8 9 1013.4 1013.4 0.0
25/08:30am 19.1 18.8 17.4 90 1.0 SSW 15 17 8 9 1013.2 1013.2 0.0
25/08:00am 19.1 18.8 17.4 90 1.0 SSW 15 17 8 9 1012.9 1012.9 0.0
25/07:30am 19.0 18.7 17.3 90 1.0 SSW 15 20 8 11 1012.6 1012.6 0.0
25/07:00am 19.0 17.9 17.3 90 1.0 SSW 19 20 10 11 1012.1 1012.1 0.0
25/06:30am 18.9 17.8 17.4 91 0.9 SSW 19 22 10 12 1011.6 1011.6 0.0
25/06:00am 19.0 18.5 17.7 92 0.8 SSW 17 20 9 11 1011.6 1011.6 0.0
25/05:30am 18.9 18.3 17.6 92 0.8 SSW 17 19 9 10 1011.4 1011.4 0.0
25/05:00am 18.9 18.4 17.7 93 0.7 SW 17 19 9 10 1011.4 1011.4 0.0

Other Formats:

Comma delimited format used in spreadsheet applications
http://www.bom.gov.au/fwo/IDS60801/IDS60801.94804.axf

JavaScript Object Notation format (JSON) in row-major order
http://www.bom.gov.au/fwo/IDS60801/IDS60801.94804.json